sensor_id;sensor_type;location;lat;lon;timestamp;P1;durP1;ratioP1;P2;durP2;ratioP2
29934;SDS011;19905;53.370;-6.314;2023-01-29T00:00:17;34.30;;;17.67;;
29934;SDS011;19905;53.370;-6.314;2023-01-29T00:02:50;39.00;;;20.65;;
29934;SDS011;19905;53.370;-6.314;2023-01-29T00:05:18;32.55;;;16.85;;
29934;SDS011;19905;53.370;-6.314;2023-01-29T00:07:53;33.42;;;17.95;;
29934;SDS011;19905;53.370;-6.314;2023-01-29T00:10:24;36.50;;;17.20;;
29934;SDS011;19905;53.370;-6.314;2023-01-29T00:12:53;34.47;;;16.92;;
29934;SDS011;19905;53.370;-6.314;2023-01-29T00:15:23;31.95;;;16.15;;
29934;SDS011;19905;53.370;-6.314;2023-01-29T00:17:52;29.98;;;15.30;;
29934;SDS011;19905;53.370;-6.314;2023-01-29T00:20:21;33.45;;;15.43;;
29934;SDS011;19905;53.370;-6.314;2023-01-29T00:22:49;30.33;;;14.57;;
29934;SDS011;19905;53.370;-6.314;2023-01-29T00:25:17;31.40;;;14.60;;
29934;SDS011;19905;53.370;-6.314;2023-01-29T00:27:46;27.73;;;13.23;;
29934;SDS011;19905;53.370;-6.314;2023-01-29T00:30:14;28.25;;;13.32;;
29934;SDS011;19905;53.370;-6.314;2023-01-29T00:32:47;26.98;;;13.40;;
29934;SDS011;19905;53.370;-6.314;2023-01-29T00:35:15;26.25;;;13.30;;
29934;SDS011;19905;53.370;-6.314;2023-01-29T00:37:44;29.92;;;13.25;;
29934;SDS011;19905;53.370;-6.314;2023-01-29T00:40:13;28.80;;;13.07;;
29934;SDS011;19905;53.370;-6.314;2023-01-29T00:42:43;26.63;;;12.85;;
29934;SDS011;19905;53.370;-6.314;2023-01-29T00:45:29;24.83;;;11.50;;
29934;SDS011;19905;53.370;-6.314;2023-01-29T00:48:00;24.63;;;12.57;;
29934;SDS011;19905;53.370;-6.314;2023-01-29T00:50:29;24.48;;;11.93;;
29934;SDS011;19905;53.370;-6.314;2023-01-29T00:52:58;25.38;;;11.98;;
29934;SDS011;19905;53.370;-6.314;2023-01-29T00:55:27;24.48;;;11.90;;
29934;SDS011;19905;53.370;-6.314;2023-01-29T00:57:56;25.95;;;13.07;;
29934;SDS011;19905;53.370;-6.314;2023-01-29T01:00:26;23.40;;;12.40;;
29934;SDS011;19905;53.370;-6.314;2023-01-29T01:02:55;28.88;;;13.02;;
29934;SDS011;19905;53.370;-6.314;2023-01-29T01:05:33;26.42;;;12.05;;
29934;SDS011;19905;53.370;-6.314;2023-01-29T01:08:02;24.80;;;12.40;;
29934;SDS011;19905;53.370;-6.314;2023-01-29T01:10:59;21.60;;;11.90;;
29934;SDS011;19905;53.370;-6.314;2023-01-29T01:13:28;21.48;;;11.93;;
29934;SDS011;19905;53.370;-6.314;2023-01-29T01:15:59;24.98;;;12.13;;
29934;SDS011;19905;53.370;-6.314;2023-01-29T01:18:28;22.85;;;11.32;;
29934;SDS011;19905;53.370;-6.314;2023-01-29T01:20:59;22.50;;;11.65;;
29934;SDS011;19905;53.370;-6.314;2023-01-29T01:23:27;23.25;;;14.02;;
29934;SDS011;19905;53.370;-6.314;2023-01-29T01:25:56;36.17;;;21.08;;
29934;SDS011;19905;53.370;-6.314;2023-01-29T01:28:24;46.13;;;26.83;;
29934;SDS011;19905;53.370;-6.314;2023-01-29T01:30:53;51.80;;;30.58;;
29934;SDS011;19905;53.370;-6.314;2023-01-29T01:33:23;54.10;;;32.15;;
29934;SDS011;19905;53.370;-6.314;2023-01-29T01:35:53;60.15;;;37.53;;
29934;SDS011;19905;53.370;-6.314;2023-01-29T01:38:24;61.40;;;37.88;;
29934;SDS011;19905;53.370;-6.314;2023-01-29T01:40:53;62.10;;;34.72;;
29934;SDS011;19905;53.370;-6.314;2023-01-29T01:43:23;50.20;;;30.83;;
29934;SDS011;19905;53.370;-6.314;2023-01-29T01:45:52;40.67;;;25.02;;
29934;SDS011;19905;53.370;-6.314;2023-01-29T01:48:22;36.78;;;22.55;;
29934;SDS011;19905;53.370;-6.314;2023-01-29T01:50:54;30.45;;;19.52;;
29934;SDS011;19905;53.370;-6.314;2023-01-29T01:53:31;27.77;;;16.48;;
29934;SDS011;19905;53.370;-6.314;2023-01-29T01:56:06;18.73;;;11.13;;
29934;SDS011;19905;53.370;-6.314;2023-01-29T01:58:41;17.13;;;9.65;;
29934;SDS011;19905;53.370;-6.314;2023-01-29T02:01:18;16.40;;;8.98;;
29934;SDS011;19905;53.370;-6.314;2023-01-29T02:03:56;18.70;;;8.80;;
29934;SDS011;19905;53.370;-6.314;2023-01-29T02:06:45;15.50;;;8.02;;
29934;SDS011;19905;53.370;-6.314;2023-01-29T02:09:35;16.27;;;8.95;;
29934;SDS011;19905;53.370;-6.314;2023-01-29T02:12:12;22.73;;;10.05;;
29934;SDS011;19905;53.370;-6.314;2023-01-29T02:14:45;18.38;;;9.50;;
29934;SDS011;19905;53.370;-6.314;2023-01-29T02:17:15;15.27;;;8.82;;
29934;SDS011;19905;53.370;-6.314;2023-01-29T02:19:47;16.90;;;10.18;;
29934;SDS011;19905;53.370;-6.314;2023-01-29T02:22:35;19.02;;;10.23;;
29934;SDS011;19905;53.370;-6.314;2023-01-29T02:25:36;14.23;;;8.00;;
29934;SDS011;19905;53.370;-6.314;2023-01-29T02:28:31;18.02;;;8.55;;
29934;SDS011;19905;53.370;-6.314;2023-01-29T02:31:08;23.10;;;8.85;;
29934;SDS011;19905;53.370;-6.314;2023-01-29T02:33:45;18.15;;;9.15;;
29934;SDS011;19905;53.370;-6.314;2023-01-29T02:36:26;14.90;;;8.98;;
29934;SDS011;19905;53.370;-6.314;2023-01-29T02:39:05;15.75;;;9.23;;
29934;SDS011;19905;53.370;-6.314;2023-01-29T02:41:44;16.50;;;8.52;;
29934;SDS011;19905;53.370;-6.314;2023-01-29T02:44:22;17.90;;;8.27;;
29934;SDS011;19905;53.370;-6.314;2023-01-29T02:47:03;12.73;;;7.20;;
29934;SDS011;19905;53.370;-6.314;2023-01-29T02:49:39;14.13;;;7.28;;
29934;SDS011;19905;53.370;-6.314;2023-01-29T02:52:17;16.65;;;7.15;;
29934;SDS011;19905;53.370;-6.314;2023-01-29T02:54:50;12.38;;;7.05;;
29934;SDS011;19905;53.370;-6.314;2023-01-29T02:57:23;13.43;;;7.22;;
29934;SDS011;19905;53.370;-6.314;2023-01-29T02:59:57;12.88;;;6.90;;
29934;SDS011;19905;53.370;-6.314;2023-01-29T03:02:34;9.02;;;5.63;;
29934;SDS011;19905;53.370;-6.314;2023-01-29T03:05:14;13.32;;;6.85;;
29934;SDS011;19905;53.370;-6.314;2023-01-29T03:07:51;12.25;;;6.55;;
29934;SDS011;19905;53.370;-6.314;2023-01-29T03:10:25;13.85;;;7.63;;
29934;SDS011;19905;53.370;-6.314;2023-01-29T03:12:59;13.50;;;7.72;;
29934;SDS011;19905;53.370;-6.314;2023-01-29T03:15:37;13.63;;;7.35;;
29934;SDS011;19905;53.370;-6.314;2023-01-29T03:18:14;15.00;;;6.90;;
29934;SDS011;19905;53.370;-6.314;2023-01-29T03:20:46;15.52;;;7.95;;
29934;SDS011;19905;53.370;-6.314;2023-01-29T03:23:20;16.20;;;7.85;;
29934;SDS011;19905;53.370;-6.314;2023-01-29T03:28:55;13.25;;;7.32;;
29934;SDS011;19905;53.370;-6.314;2023-01-29T03:31:47;18.98;;;7.15;;
29934;SDS011;19905;53.370;-6.314;2023-01-29T03:34:35;15.25;;;7.22;;
29934;SDS011;19905;53.370;-6.314;2023-01-29T03:37:12;11.95;;;6.22;;
29934;SDS011;19905;53.370;-6.314;2023-01-29T03:39:46;10.85;;;6.05;;
29934;SDS011;19905;53.370;-6.314;2023-01-29T03:42:18;10.32;;;5.30;;
29934;SDS011;19905;53.370;-6.314;2023-01-29T03:44:55;7.13;;;4.78;;
29934;SDS011;19905;53.370;-6.314;2023-01-29T03:47:31;9.85;;;4.50;;
29934;SDS011;19905;53.370;-6.314;2023-01-29T03:50:11;10.80;;;4.25;;
29934;SDS011;19905;53.370;-6.314;2023-01-29T03:52:59;9.35;;;4.22;;
29934;SDS011;19905;53.370;-6.314;2023-01-29T03:55:35;6.05;;;3.80;;
29934;SDS011;19905;53.370;-6.314;2023-01-29T03:58:13;7.03;;;3.05;;
29934;SDS011;19905;53.370;-6.314;2023-01-29T04:00:51;6.00;;;3.78;;
29934;SDS011;19905;53.370;-6.314;2023-01-29T04:03:25;6.43;;;3.20;;
29934;SDS011;19905;53.370;-6.314;2023-01-29T04:06:02;7.88;;;2.78;;
29934;SDS011;19905;53.370;-6.314;2023-01-29T04:08:37;5.60;;;2.80;;
29934;SDS011;19905;53.370;-6.314;2023-01-29T04:11:15;5.00;;;2.40;;
29934;SDS011;19905;53.370;-6.314;2023-01-29T04:13:48;8.23;;;3.20;;
29934;SDS011;19905;53.370;-6.314;2023-01-29T04:16:19;5.97;;;2.67;;
29934;SDS011;19905;53.370;-6.314;2023-01-29T04:18:54;7.75;;;3.38;;
29934;SDS011;19905;53.370;-6.314;2023-01-29T04:21:23;6.43;;;2.25;;
29934;SDS011;19905;53.370;-6.314;2023-01-29T04:23:53;8.40;;;2.60;;
29934;SDS011;19905;53.370;-6.314;2023-01-29T04:26:30;6.07;;;2.22;;
29934;SDS011;19905;53.370;-6.314;2023-01-29T04:29:12;10.25;;;2.38;;
29934;SDS011;19905;53.370;-6.314;2023-01-29T04:31:54;7.15;;;2.13;;
29934;SDS011;19905;53.370;-6.314;2023-01-29T04:34:38;5.60;;;2.30;;
29934;SDS011;19905;53.370;-6.314;2023-01-29T04:37:21;7.22;;;2.20;;
29934;SDS011;19905;53.370;-6.314;2023-01-29T04:39:59;9.65;;;2.45;;
29934;SDS011;19905;53.370;-6.314;2023-01-29T04:42:40;9.30;;;2.38;;
29934;SDS011;19905;53.370;-6.314;2023-01-29T04:45:17;8.43;;;2.15;;
29934;SDS011;19905;53.370;-6.314;2023-01-29T04:47:56;5.13;;;1.80;;
29934;SDS011;19905;53.370;-6.314;2023-01-29T04:50:37;7.57;;;1.70;;
29934;SDS011;19905;53.370;-6.314;2023-01-29T04:53:12;2.30;;;1.40;;
29934;SDS011;19905;53.370;-6.314;2023-01-29T04:55:46;7.38;;;1.90;;
29934;SDS011;19905;53.370;-6.314;2023-01-29T04:58:21;4.40;;;1.83;;
29934;SDS011;19905;53.370;-6.314;2023-01-29T05:00:57;8.07;;;1.90;;
29934;SDS011;19905;53.370;-6.314;2023-01-29T05:03:31;5.13;;;1.60;;
29934;SDS011;19905;53.370;-6.314;2023-01-29T05:06:05;7.57;;;1.80;;
29934;SDS011;19905;53.370;-6.314;2023-01-29T05:08:39;6.22;;;1.80;;
29934;SDS011;19905;53.370;-6.314;2023-01-29T05:11:09;5.85;;;1.80;;
29934;SDS011;19905;53.370;-6.314;2023-01-29T05:13:41;4.40;;;1.58;;
29934;SDS011;19905;53.370;-6.314;2023-01-29T05:16:12;5.90;;;1.85;;
29934;SDS011;19905;53.370;-6.314;2023-01-29T05:18:45;3.63;;;1.58;;
29934;SDS011;19905;53.370;-6.314;2023-01-29T05:21:17;6.40;;;1.85;;
29934;SDS011;19905;53.370;-6.314;2023-01-29T05:26:40;4.97;;;1.65;;
29934;SDS011;19905;53.370;-6.314;2023-01-29T05:29:27;4.25;;;1.70;;
29934;SDS011;19905;53.370;-6.314;2023-01-29T05:31:56;4.40;;;1.38;;
29934;SDS011;19905;53.370;-6.314;2023-01-29T05:34:31;6.22;;;1.70;;
29934;SDS011;19905;53.370;-6.314;2023-01-29T05:39:33;7.13;;;1.77;;
29934;SDS011;19905;53.370;-6.314;2023-01-29T05:42:02;4.10;;;1.48;;
29934;SDS011;19905;53.370;-6.314;2023-01-29T05:44:31;5.10;;;1.40;;
29934;SDS011;19905;53.370;-6.314;2023-01-29T05:46:59;3.80;;;1.50;;
29934;SDS011;19905;53.370;-6.314;2023-01-29T05:49:29;3.92;;;1.30;;
29934;SDS011;19905;53.370;-6.314;2023-01-29T05:51:59;4.97;;;1.63;;
29934;SDS011;19905;53.370;-6.314;2023-01-29T05:54:29;4.20;;;1.40;;
29934;SDS011;19905;53.370;-6.314;2023-01-29T05:56:59;3.65;;;1.60;;
29934;SDS011;19905;53.370;-6.314;2023-01-29T05:59:27;2.85;;;1.20;;
29934;SDS011;19905;53.370;-6.314;2023-01-29T06:01:57;1.80;;;1.00;;
29934;SDS011;19905;53.370;-6.314;2023-01-29T06:04:26;2.88;;;1.15;;
29934;SDS011;19905;53.370;-6.314;2023-01-29T06:06:55;3.97;;;1.15;;
29934;SDS011;19905;53.370;-6.314;2023-01-29T06:09:24;2.88;;;1.25;;
29934;SDS011;19905;53.370;-6.314;2023-01-29T06:11:54;2.30;;;0.90;;
29934;SDS011;19905;53.370;-6.314;2023-01-29T06:14:23;4.15;;;1.10;;
29934;SDS011;19905;53.370;-6.314;2023-01-29T06:16:57;2.22;;;1.00;;
29934;SDS011;19905;53.370;-6.314;2023-01-29T06:19:27;5.57;;;1.20;;
29934;SDS011;19905;53.370;-6.314;2023-01-29T06:21:55;4.22;;;1.27;;
29934;SDS011;19905;53.370;-6.314;2023-01-29T06:24:25;3.28;;;1.40;;
29934;SDS011;19905;53.370;-6.314;2023-01-29T06:26:55;2.47;;;0.98;;
29934;SDS011;19905;53.370;-6.314;2023-01-29T06:29:24;2.03;;;1.20;;
29934;SDS011;19905;53.370;-6.314;2023-01-29T06:31:52;3.55;;;1.23;;
29934;SDS011;19905;53.370;-6.314;2023-01-29T06:34:21;2.00;;;1.00;;
29934;SDS011;19905;53.370;-6.314;2023-01-29T06:36:50;2.65;;;1.25;;
29934;SDS011;19905;53.370;-6.314;2023-01-29T06:39:19;3.97;;;0.95;;
29934;SDS011;19905;53.370;-6.314;2023-01-29T06:41:48;2.80;;;1.05;;
29934;SDS011;19905;53.370;-6.314;2023-01-29T06:44:20;1.40;;;1.00;;
29934;SDS011;19905;53.370;-6.314;2023-01-29T06:46:49;2.75;;;1.20;;
29934;SDS011;19905;53.370;-6.314;2023-01-29T06:49:17;2.33;;;1.08;;
29934;SDS011;19905;53.370;-6.314;2023-01-29T06:51:46;1.73;;;0.90;;
29934;SDS011;19905;53.370;-6.314;2023-01-29T06:54:15;2.38;;;1.13;;
29934;SDS011;19905;53.370;-6.314;2023-01-29T06:56:43;2.42;;;0.90;;
29934;SDS011;19905;53.370;-6.314;2023-01-29T06:59:12;1.80;;;0.80;;
29934;SDS011;19905;53.370;-6.314;2023-01-29T07:01:43;1.48;;;0.93;;
29934;SDS011;19905;53.370;-6.314;2023-01-29T07:04:11;1.48;;;0.80;;
29934;SDS011;19905;53.370;-6.314;2023-01-29T07:06:42;1.38;;;1.13;;
29934;SDS011;19905;53.370;-6.314;2023-01-29T07:09:10;2.55;;;1.27;;
29934;SDS011;19905;53.370;-6.314;2023-01-29T07:11:40;1.35;;;0.93;;
29934;SDS011;19905;53.370;-6.314;2023-01-29T07:14:10;2.08;;;1.10;;
29934;SDS011;19905;53.370;-6.314;2023-01-29T07:16:38;1.95;;;1.10;;
29934;SDS011;19905;53.370;-6.314;2023-01-29T07:19:08;1.77;;;1.00;;
29934;SDS011;19905;53.370;-6.314;2023-01-29T07:21:38;1.83;;;0.90;;
29934;SDS011;19905;53.370;-6.314;2023-01-29T07:24:07;1.73;;;1.10;;
29934;SDS011;19905;53.370;-6.314;2023-01-29T07:26:36;3.38;;;1.13;;
29934;SDS011;19905;53.370;-6.314;2023-01-29T07:29:06;2.60;;;1.20;;
29934;SDS011;19905;53.370;-6.314;2023-01-29T07:31:40;2.10;;;1.30;;
29934;SDS011;19905;53.370;-6.314;2023-01-29T07:34:10;2.45;;;1.27;;
29934;SDS011;19905;53.370;-6.314;2023-01-29T07:36:39;3.38;;;1.13;;
29934;SDS011;19905;53.370;-6.314;2023-01-29T07:39:08;2.10;;;1.02;;
29934;SDS011;19905;53.370;-6.314;2023-01-29T07:41:36;2.08;;;1.20;;
29934;SDS011;19905;53.370;-6.314;2023-01-29T07:44:05;1.38;;;0.80;;
29934;SDS011;19905;53.370;-6.314;2023-01-29T07:46:33;4.35;;;1.10;;
29934;SDS011;19905;53.370;-6.314;2023-01-29T07:49:02;2.90;;;1.08;;
29934;SDS011;19905;53.370;-6.314;2023-01-29T07:51:32;3.22;;;1.25;;
29934;SDS011;19905;53.370;-6.314;2023-01-29T07:54:03;3.10;;;1.10;;
29934;SDS011;19905;53.370;-6.314;2023-01-29T07:56:33;1.35;;;0.80;;
29934;SDS011;19905;53.370;-6.314;2023-01-29T07:59:01;3.65;;;1.50;;
29934;SDS011;19905;53.370;-6.314;2023-01-29T08:01:33;5.13;;;1.17;;
29934;SDS011;19905;53.370;-6.314;2023-01-29T08:04:01;4.43;;;1.27;;
29934;SDS011;19905;53.370;-6.314;2023-01-29T08:06:32;3.47;;;1.20;;
29934;SDS011;19905;53.370;-6.314;2023-01-29T08:09:00;2.40;;;1.40;;
29934;SDS011;19905;53.370;-6.314;2023-01-29T08:11:29;3.65;;;1.15;;
29934;SDS011;19905;53.370;-6.314;2023-01-29T08:14:01;5.82;;;1.77;;
29934;SDS011;19905;53.370;-6.314;2023-01-29T08:16:32;3.53;;;1.40;;
29934;SDS011;19905;53.370;-6.314;2023-01-29T08:19:00;3.97;;;1.40;;
29934;SDS011;19905;53.370;-6.314;2023-01-29T08:21:29;3.90;;;1.17;;
29934;SDS011;19905;53.370;-6.314;2023-01-29T08:23:59;2.58;;;1.08;;
29934;SDS011;19905;53.370;-6.314;2023-01-29T08:26:29;4.45;;;1.42;;
29934;SDS011;19905;53.370;-6.314;2023-01-29T08:28:59;2.55;;;1.10;;
29934;SDS011;19905;53.370;-6.314;2023-01-29T08:31:27;3.55;;;1.10;;
29934;SDS011;19905;53.370;-6.314;2023-01-29T08:33:56;2.95;;;1.20;;
29934;SDS011;19905;53.370;-6.314;2023-01-29T08:36:25;3.63;;;1.30;;
29934;SDS011;19905;53.370;-6.314;2023-01-29T08:38:54;2.63;;;1.33;;
29934;SDS011;19905;53.370;-6.314;2023-01-29T08:41:26;2.67;;;1.50;;
29934;SDS011;19905;53.370;-6.314;2023-01-29T08:43:54;5.28;;;1.30;;
29934;SDS011;19905;53.370;-6.314;2023-01-29T08:46:23;3.80;;;1.20;;
29934;SDS011;19905;53.370;-6.314;2023-01-29T08:48:52;3.22;;;1.33;;
29934;SDS011;19905;53.370;-6.314;2023-01-29T08:51:21;4.75;;;1.38;;
29934;SDS011;19905;53.370;-6.314;2023-01-29T08:53:52;5.47;;;1.60;;
29934;SDS011;19905;53.370;-6.314;2023-01-29T08:56:20;2.88;;;1.20;;
29934;SDS011;19905;53.370;-6.314;2023-01-29T08:58:50;5.82;;;1.52;;
29934;SDS011;19905;53.370;-6.314;2023-01-29T09:01:19;5.35;;;1.48;;
29934;SDS011;19905;53.370;-6.314;2023-01-29T09:03:47;4.65;;;1.55;;
29934;SDS011;19905;53.370;-6.314;2023-01-29T09:06:16;6.35;;;1.33;;
29934;SDS011;19905;53.370;-6.314;2023-01-29T09:08:44;3.75;;;1.10;;
29934;SDS011;19905;53.370;-6.314;2023-01-29T09:11:13;3.47;;;1.27;;
29934;SDS011;19905;53.370;-6.314;2023-01-29T09:13:42;3.85;;;1.40;;
29934;SDS011;19905;53.370;-6.314;2023-01-29T09:16:12;1.60;;;1.15;;
29934;SDS011;19905;53.370;-6.314;2023-01-29T09:18:41;6.70;;;1.80;;
29934;SDS011;19905;53.370;-6.314;2023-01-29T09:21:10;5.15;;;1.40;;
29934;SDS011;19905;53.370;-6.314;2023-01-29T09:26:12;3.17;;;1.27;;
29934;SDS011;19905;53.370;-6.314;2023-01-29T09:28:40;8.00;;;2.30;;
29934;SDS011;19905;53.370;-6.314;2023-01-29T09:31:08;7.13;;;1.67;;
29934;SDS011;19905;53.370;-6.314;2023-01-29T09:33:40;5.82;;;1.88;;
29934;SDS011;19905;53.370;-6.314;2023-01-29T09:36:09;6.18;;;1.77;;
29934;SDS011;19905;53.370;-6.314;2023-01-29T09:38:37;6.90;;;2.05;;
29934;SDS011;19905;53.370;-6.314;2023-01-29T09:41:07;9.13;;;1.92;;
29934;SDS011;19905;53.370;-6.314;2023-01-29T09:43:50;4.28;;;2.00;;
29934;SDS011;19905;53.370;-6.314;2023-01-29T09:46:24;5.13;;;2.10;;
29934;SDS011;19905;53.370;-6.314;2023-01-29T09:49:05;8.05;;;2.25;;
29934;SDS011;19905;53.370;-6.314;2023-01-29T09:51:41;5.85;;;2.45;;
29934;SDS011;19905;53.370;-6.314;2023-01-29T09:54:16;8.27;;;2.30;;
29934;SDS011;19905;53.370;-6.314;2023-01-29T09:56:49;8.73;;;2.08;;
29934;SDS011;19905;53.370;-6.314;2023-01-29T09:59:22;4.95;;;1.85;;
29934;SDS011;19905;53.370;-6.314;2023-01-29T10:01:55;7.90;;;2.70;;
29934;SDS011;19905;53.370;-6.314;2023-01-29T10:04:42;5.30;;;2.08;;
29934;SDS011;19905;53.370;-6.314;2023-01-29T10:07:35;9.32;;;2.40;;
29934;SDS011;19905;53.370;-6.314;2023-01-29T10:10:17;9.38;;;2.60;;
29934;SDS011;19905;53.370;-6.314;2023-01-29T10:12:59;5.20;;;2.47;;
29934;SDS011;19905;53.370;-6.314;2023-01-29T10:15:39;4.07;;;2.03;;
29934;SDS011;19905;53.370;-6.314;2023-01-29T10:18:27;7.53;;;2.53;;
29934;SDS011;19905;53.370;-6.314;2023-01-29T10:21:17;6.43;;;2.72;;
29934;SDS011;19905;53.370;-6.314;2023-01-29T10:23:56;9.70;;;3.10;;
29934;SDS011;19905;53.370;-6.314;2023-01-29T10:26:37;5.60;;;2.20;;
29934;SDS011;19905;53.370;-6.314;2023-01-29T10:29:09;5.00;;;2.40;;
29934;SDS011;19905;53.370;-6.314;2023-01-29T10:31:45;7.85;;;2.00;;
29934;SDS011;19905;53.370;-6.314;2023-01-29T10:34:20;6.07;;;2.08;;
29934;SDS011;19905;53.370;-6.314;2023-01-29T10:36:56;4.07;;;2.28;;
29934;SDS011;19905;53.370;-6.314;2023-01-29T10:39:25;5.97;;;2.60;;
29934;SDS011;19905;53.370;-6.314;2023-01-29T10:42:01;7.65;;;2.50;;
29934;SDS011;19905;53.370;-6.314;2023-01-29T10:44:45;4.53;;;2.10;;
29934;SDS011;19905;53.370;-6.314;2023-01-29T10:47:29;4.75;;;2.10;;
29934;SDS011;19905;53.370;-6.314;2023-01-29T10:50:35;4.55;;;2.40;;
29934;SDS011;19905;53.370;-6.314;2023-01-29T10:53:18;4.25;;;2.03;;
29934;SDS011;19905;53.370;-6.314;2023-01-29T10:55:56;6.45;;;1.88;;
29934;SDS011;19905;53.370;-6.314;2023-01-29T10:58:54;4.10;;;1.88;;
29934;SDS011;19905;53.370;-6.314;2023-01-29T11:01:28;5.78;;;2.17;;
29934;SDS011;19905;53.370;-6.314;2023-01-29T11:03:57;5.50;;;2.45;;
29934;SDS011;19905;53.370;-6.314;2023-01-29T11:06:30;4.80;;;2.30;;
29934;SDS011;19905;53.370;-6.314;2023-01-29T11:09:04;4.28;;;2.28;;
29934;SDS011;19905;53.370;-6.314;2023-01-29T11:11:40;9.77;;;2.42;;
29934;SDS011;19905;53.370;-6.314;2023-01-29T11:14:13;9.95;;;2.50;;
29934;SDS011;19905;53.370;-6.314;2023-01-29T11:16:48;8.77;;;2.80;;
29934;SDS011;19905;53.370;-6.314;2023-01-29T11:19:18;6.47;;;2.67;;
29934;SDS011;19905;53.370;-6.314;2023-01-29T11:22:04;6.22;;;2.55;;
29934;SDS011;19905;53.370;-6.314;2023-01-29T11:24:43;4.68;;;2.83;;
29934;SDS011;19905;53.370;-6.314;2023-01-29T11:27:13;9.68;;;3.08;;
29934;SDS011;19905;53.370;-6.314;2023-01-29T11:29:47;8.27;;;2.70;;
29934;SDS011;19905;53.370;-6.314;2023-01-29T11:32:23;7.97;;;3.08;;
29934;SDS011;19905;53.370;-6.314;2023-01-29T11:34:57;6.90;;;2.60;;
29934;SDS011;19905;53.370;-6.314;2023-01-29T11:37:32;4.47;;;2.33;;
29934;SDS011;19905;53.370;-6.314;2023-01-29T11:43:15;7.13;;;2.65;;
29934;SDS011;19905;53.370;-6.314;2023-01-29T11:45:48;10.70;;;3.17;;
29934;SDS011;19905;53.370;-6.314;2023-01-29T11:48:19;8.30;;;2.63;;
29934;SDS011;19905;53.370;-6.314;2023-01-29T11:50:50;8.60;;;2.97;;
29934;SDS011;19905;53.370;-6.314;2023-01-29T11:53:22;6.68;;;3.33;;
29934;SDS011;19905;53.370;-6.314;2023-01-29T11:56:00;10.68;;;3.33;;
29934;SDS011;19905;53.370;-6.314;2023-01-29T11:58:36;8.30;;;2.97;;
29934;SDS011;19905;53.370;-6.314;2023-01-29T12:01:11;7.63;;;3.67;;
29934;SDS011;19905;53.370;-6.314;2023-01-29T12:03:45;10.18;;;3.60;;
29934;SDS011;19905;53.370;-6.314;2023-01-29T12:06:20;7.95;;;3.35;;
29934;SDS011;19905;53.370;-6.314;2023-01-29T12:08:54;7.85;;;3.40;;
29934;SDS011;19905;53.370;-6.314;2023-01-29T12:11:26;7.43;;;3.28;;
29934;SDS011;19905;53.370;-6.314;2023-01-29T12:14:01;6.22;;;3.15;;
29934;SDS011;19905;53.370;-6.314;2023-01-29T12:16:34;6.18;;;3.03;;
29934;SDS011;19905;53.370;-6.314;2023-01-29T12:19:08;6.35;;;3.30;;
29934;SDS011;19905;53.370;-6.314;2023-01-29T12:21:45;7.13;;;3.25;;
29934;SDS011;19905;53.370;-6.314;2023-01-29T12:24:23;9.65;;;3.67;;
29934;SDS011;19905;53.370;-6.314;2023-01-29T12:27:04;4.20;;;2.45;;
29934;SDS011;19905;53.370;-6.314;2023-01-29T12:29:41;6.18;;;2.92;;
29934;SDS011;19905;53.370;-6.314;2023-01-29T12:32:19;5.35;;;3.28;;
29934;SDS011;19905;53.370;-6.314;2023-01-29T12:34:57;6.30;;;2.80;;
29934;SDS011;19905;53.370;-6.314;2023-01-29T12:37:34;4.32;;;2.30;;
29934;SDS011;19905;53.370;-6.314;2023-01-29T12:40:10;7.20;;;2.70;;
29934;SDS011;19905;53.370;-6.314;2023-01-29T12:42:45;6.28;;;2.65;;
29934;SDS011;19905;53.370;-6.314;2023-01-29T12:45:17;5.50;;;2.53;;
29934;SDS011;19905;53.370;-6.314;2023-01-29T12:47:50;4.95;;;2.45;;
29934;SDS011;19905;53.370;-6.314;2023-01-29T12:50:23;8.40;;;3.00;;
29934;SDS011;19905;53.370;-6.314;2023-01-29T12:52:56;6.50;;;2.88;;
29934;SDS011;19905;53.370;-6.314;2023-01-29T12:55:28;6.95;;;2.60;;
29934;SDS011;19905;53.370;-6.314;2023-01-29T12:58:08;4.50;;;2.40;;
29934;SDS011;19905;53.370;-6.314;2023-01-29T13:00:49;6.15;;;2.90;;
29934;SDS011;19905;53.370;-6.314;2023-01-29T13:03:22;7.75;;;3.13;;
29934;SDS011;19905;53.370;-6.314;2023-01-29T13:05:55;6.57;;;3.17;;
29934;SDS011;19905;53.370;-6.314;2023-01-29T13:08:25;4.65;;;3.00;;
29934;SDS011;19905;53.370;-6.314;2023-01-29T13:10:59;5.05;;;2.47;;
29934;SDS011;19905;53.370;-6.314;2023-01-29T13:13:33;5.15;;;2.85;;
29934;SDS011;19905;53.370;-6.314;2023-01-29T13:16:11;4.60;;;2.60;;
29934;SDS011;19905;53.370;-6.314;2023-01-29T13:18:50;5.30;;;2.63;;
29934;SDS011;19905;53.370;-6.314;2023-01-29T13:21:26;6.38;;;3.20;;
29934;SDS011;19905;53.370;-6.314;2023-01-29T13:23:59;5.72;;;3.17;;
29934;SDS011;19905;53.370;-6.314;2023-01-29T13:26:37;3.58;;;2.35;;
29934;SDS011;19905;53.370;-6.314;2023-01-29T13:29:13;6.45;;;3.40;;
29934;SDS011;19905;53.370;-6.314;2023-01-29T13:31:52;6.53;;;2.58;;
29934;SDS011;19905;53.370;-6.314;2023-01-29T13:34:23;6.60;;;3.28;;
29934;SDS011;19905;53.370;-6.314;2023-01-29T13:37:02;6.53;;;3.15;;
29934;SDS011;19905;53.370;-6.314;2023-01-29T13:39:47;7.43;;;2.42;;
29934;SDS011;19905;53.370;-6.314;2023-01-29T13:42:19;8.38;;;2.17;;
29934;SDS011;19905;53.370;-6.314;2023-01-29T13:44:51;9.60;;;3.10;;
29934;SDS011;19905;53.370;-6.314;2023-01-29T13:47:23;8.70;;;2.33;;
29934;SDS011;19905;53.370;-6.314;2023-01-29T13:49:54;7.65;;;3.10;;
29934;SDS011;19905;53.370;-6.314;2023-01-29T13:52:32;4.65;;;1.98;;
29934;SDS011;19905;53.370;-6.314;2023-01-29T13:55:06;8.23;;;2.75;;
29934;SDS011;19905;53.370;-6.314;2023-01-29T13:57:49;6.40;;;2.10;;
29934;SDS011;19905;53.370;-6.314;2023-01-29T14:09:34;7.68;;;2.53;;
29934;SDS011;19905;53.370;-6.314;2023-01-29T14:12:41;9.20;;;2.30;;
29934;SDS011;19905;53.370;-6.314;2023-01-29T14:15:22;7.75;;;2.20;;
29934;SDS011;19905;53.370;-6.314;2023-01-29T14:18:03;8.65;;;2.10;;
29934;SDS011;19905;53.370;-6.314;2023-01-29T14:20:50;10.10;;;2.45;;
29934;SDS011;19905;53.370;-6.314;2023-01-29T14:23:34;7.85;;;2.17;;
29934;SDS011;19905;53.370;-6.314;2023-01-29T14:26:21;8.70;;;2.00;;
29934;SDS011;19905;53.370;-6.314;2023-01-29T14:29:00;8.07;;;2.10;;
29934;SDS011;19905;53.370;-6.314;2023-01-29T14:31:35;5.82;;;2.35;;
29934;SDS011;19905;53.370;-6.314;2023-01-29T14:34:15;8.80;;;2.50;;
29934;SDS011;19905;53.370;-6.314;2023-01-29T14:36:51;9.13;;;2.67;;
29934;SDS011;19905;53.370;-6.314;2023-01-29T14:39:27;8.45;;;2.60;;
29934;SDS011;19905;53.370;-6.314;2023-01-29T14:42:01;8.55;;;2.75;;
29934;SDS011;19905;53.370;-6.314;2023-01-29T14:44:55;8.65;;;2.17;;
29934;SDS011;19905;53.370;-6.314;2023-01-29T14:50:39;7.72;;;1.95;;
29934;SDS011;19905;53.370;-6.314;2023-01-29T14:53:21;8.63;;;2.20;;
29934;SDS011;19905;53.370;-6.314;2023-01-29T14:55:55;6.57;;;1.80;;
29934;SDS011;19905;53.370;-6.314;2023-01-29T14:58:32;13.63;;;2.08;;
29934;SDS011;19905;53.370;-6.314;2023-01-29T15:01:07;8.95;;;2.50;;
29934;SDS011;19905;53.370;-6.314;2023-01-29T15:03:48;6.97;;;1.58;;
29934;SDS011;19905;53.370;-6.314;2023-01-29T15:06:22;8.02;;;1.98;;
29934;SDS011;19905;53.370;-6.314;2023-01-29T15:09:02;5.40;;;1.85;;
29934;SDS011;19905;53.370;-6.314;2023-01-29T15:11:43;10.27;;;2.40;;
29934;SDS011;19905;53.370;-6.314;2023-01-29T15:14:22;8.10;;;2.33;;
29934;SDS011;19905;53.370;-6.314;2023-01-29T15:17:05;6.50;;;1.90;;
29934;SDS011;19905;53.370;-6.314;2023-01-29T15:19:45;10.13;;;1.77;;
29934;SDS011;19905;53.370;-6.314;2023-01-29T15:22:16;10.13;;;1.92;;
29934;SDS011;19905;53.370;-6.314;2023-01-29T15:25:01;11.15;;;2.42;;
29934;SDS011;19905;53.370;-6.314;2023-01-29T15:27:33;9.88;;;2.25;;
29934;SDS011;19905;53.370;-6.314;2023-01-29T15:30:03;12.80;;;2.45;;
29934;SDS011;19905;53.370;-6.314;2023-01-29T15:32:36;11.52;;;2.20;;
29934;SDS011;19905;53.370;-6.314;2023-01-29T15:35:16;12.82;;;2.28;;